6NK1 weather

Casey's Airport
Warsaw, New York, United States

Public forecast

Using degrees Fahrenheit for public forecast. Weather courtesy of forecast.io.

METAR (pilot weather report)

Closest report is Dansville Municipal Airport, 23.3 nm (43.1 km) ESE. Retrieved 2019/06/16 07:54 UTC (15 minutes ago):

KDSV 160754Z AUTO 32004KT 10SM OVC023 18/17 A2985 RMK AO2 SLP113 T01780167

TAF (pilot weather forecast)

Closest forecast is Buffalo Niagara International Airport, 26.9 nm (49.8 km) WNW. Retrieved 2019/06/16 06:22 UTC (2 hours ago):

TAF KBUF 160520Z 1606/1706 25005KT 2SM -RA BR OVC004 FM160900 04006KT 2SM -DZ BR OVC004 FM161400 05008KT P6SM OVC007 FM161700 05008KT P6SM BKN015 FM162100 05007KT P6SM SCT025 BKN120